Time;durP1;ratioP1;P1;durP2;ratioP2;P2;SDS_P1;SDS_P2;PMS_P1;PMS_P2;Temp;Humidity;BMP_temperature;BMP_pressure;BME280_temperature;BME280_humidity;BME280_pressure;Samples;Min_cycle;Max_cycle;Signal;HPM_P1;HPM_P2
2022/03/18 00:01:49;;;;;;;3.87;1.40;;;;;4.10;103218.00;;;;5080701;28;20227;-62
2022/03/18 00:04:36;;;;;;;5.57;1.60;;;;;4.20;103218.00;;;;5085450;28;20226;-65
2022/03/18 00:07:23;;;;;;;2.90;1.60;;;;;4.10;103224.00;;;;5070928;28;20235;-66
2022/03/18 00:10:10;;;;;;;2.67;1.50;;;;;4.00;103234.00;;;;5104415;28;20711;-65
2022/03/18 00:12:56;;;;;;;1.50;1.40;;;;;3.90;103233.00;;;;5105535;27;20249;-64
2022/03/18 00:15:42;;;;;;;2.50;1.50;;;;;3.90;103234.00;;;;5094780;28;20284;-67
2022/03/18 00:18:30;;;;;;;4.30;1.80;;;;;3.80;103225.00;;;;5077180;28;20231;-65
2022/03/18 00:21:17;;;;;;;1.90;1.73;;;;;3.80;103197.00;;;;5069206;28;20770;-64
2022/03/18 00:24:04;;;;;;;4.60;2.20;;;;;3.90;103228.00;;;;5084163;28;20799;-68
2022/03/18 00:26:50;;;;;;;3.00;1.83;;;;;3.90;103226.00;;;;5081424;28;20239;-66
2022/03/18 00:29:36;;;;;;;3.23;1.70;;;;;3.90;103228.00;;;;5083270;28;20228;-67
2022/03/18 00:32:23;;;;;;;7.17;2.00;;;;;3.70;103225.00;;;;5069747;28;20624;-68
2022/03/18 00:35:11;;;;;;;3.07;2.00;;;;;3.80;103230.00;;;;5083306;28;20231;-68
2022/03/18 00:38:00;;;;;;;4.90;2.10;;;;;3.80;103231.00;;;;5086215;28;20226;-67
2022/03/18 00:40:48;;;;;;;4.23;2.13;;;;;3.80;103234.00;;;;5082782;28;20220;-67
2022/03/18 00:43:34;;;;;;;6.03;2.23;;;;;3.80;103230.00;;;;5094217;28;20228;-67
2022/03/18 00:46:23;;;;;;;6.97;2.20;;;;;3.70;103238.00;;;;5102482;28;20700;-67
2022/03/18 00:52:15;;;;;;;5.03;2.13;;;;;3.70;103235.00;;;;5101877;28;20352;-66
2022/03/18 00:55:01;;;;;;;4.03;1.63;;;;;3.70;103243.00;;;;5103118;28;20227;-69
2022/03/18 00:57:47;;;;;;;2.03;1.70;;;;;3.60;103249.00;;;;5069367;28;20243;-67
2022/03/18 01:00:34;;;;;;;2.60;1.80;;;;;3.60;103251.00;;;;5073734;28;20273;-67
2022/03/18 01:03:20;;;;;;;3.53;1.83;;;;;3.60;103245.00;;;;5078293;28;20813;-68
2022/03/18 01:06:06;;;;;;;7.83;2.10;;;;;3.60;103261.00;;;;5079981;28;20242;-69
2022/03/18 01:08:54;;;;;;;6.27;1.77;;;;;3.60;103262.00;;;;5072842;28;20290;-68
2022/03/18 01:11:41;;;;;;;6.07;2.70;;;;;3.50;103258.00;;;;5073281;28;20232;-67
2022/03/18 01:14:27;;;;;;;5.00;2.03;;;;;3.60;103256.00;;;;5073477;28;20243;-69
2022/03/18 01:17:13;;;;;;;6.50;2.00;;;;;3.50;103261.00;;;;5067636;28;20224;-67
2022/03/18 01:19:59;;;;;;;7.73;2.77;;;;;3.50;103259.00;;;;5055289;28;20271;-68
2022/03/18 01:22:46;;;;;;;4.93;2.10;;;;;3.50;103265.00;;;;5079374;28;20231;-68
2022/03/18 01:25:33;;;;;;;3.27;2.27;;;;;3.60;103266.00;;;;5066903;28;20770;-67
2022/03/18 01:28:20;;;;;;;8.17;2.50;;;;;3.50;103269.00;;;;5096809;28;20231;-67
2022/03/18 01:31:06;;;;;;;9.83;2.93;;;;;3.50;103279.00;;;;5104426;28;20223;-69
2022/03/18 01:33:53;;;;;;;3.87;2.43;;;;;3.40;103274.00;;;;5083782;28;20345;-66
2022/03/18 01:36:39;;;;;;;4.00;2.23;;;;;3.40;103275.00;;;;5087875;28;20275;-67
2022/03/18 01:39:25;;;;;;;4.80;2.13;;;;;3.30;103265.00;;;;5075141;28;20951;-67
2022/03/18 01:42:13;;;;;;;4.33;1.93;;;;;3.20;103279.00;;;;5086683;28;20239;-68
2022/03/18 01:44:59;;;;;;;3.20;1.93;;;;;3.20;103273.00;;;;5084204;28;20243;-65
2022/03/18 01:47:47;;;;;;;4.83;1.93;;;;;3.20;103274.00;;;;5105738;28;20617;-67
2022/03/18 01:50:34;;;;;;;2.87;1.97;;;;;3.20;103278.00;;;;5107781;28;20223;-66
2022/03/18 01:53:20;;;;;;;5.00;1.67;;;;;3.00;103286.00;;;;5091328;28;20316;-67
2022/03/18 01:56:07;;;;;;;1.87;1.60;;;;;3.00;103292.00;;;;5107171;28;20218;-67
2022/03/18 01:58:54;;;;;;;3.57;1.60;;;;;3.00;103283.00;;;;5106266;28;20226;-66
2022/03/18 02:01:41;;;;;;;4.37;2.20;;;;;3.10;103294.00;;;;5079470;28;20222;-66
2022/03/18 02:04:28;;;;;;;3.43;1.73;;;;;3.10;103267.00;;;;5093384;28;20683;-67
2022/03/18 02:07:15;;;;;;;3.70;1.93;;;;;3.00;103274.00;;;;5104254;28;20218;-68
2022/03/18 02:10:02;;;;;;;2.67;2.10;;;;;2.80;103295.00;;;;5106448;28;20288;-67
2022/03/18 02:12:48;;;;;;;7.60;2.13;;;;;2.90;103304.00;;;;5107002;28;20233;-67
2022/03/18 02:15:39;;;;;;;2.43;1.53;;;;;2.90;103305.00;;;;5095861;28;20230;-67
2022/03/18 02:18:26;;;;;;;2.80;2.00;;;;;3.00;103311.00;;;;5088903;28;20226;-66
2022/03/18 02:21:14;;;;;;;3.17;1.43;;;;;2.80;103312.00;;;;5103294;28;20213;-66
2022/03/18 02:24:02;;;;;;;2.77;1.73;;;;;2.90;103326.00;;;;5105862;27;20238;-66
2022/03/18 02:26:49;;;;;;;2.57;1.80;;;;;2.90;103328.00;;;;5089478;28;20758;-68
2022/03/18 02:29:36;;;;;;;6.07;2.30;;;;;2.80;103312.00;;;;5074262;28;20349;-69
2022/03/18 02:32:23;;;;;;;3.90;2.43;;;;;2.80;103317.00;;;;5063287;28;20224;-67
2022/03/18 02:35:09;;;;;;;15.30;3.20;;;;;2.80;103324.00;;;;5101889;28;20254;-67
2022/03/18 02:37:56;;;;;;;5.80;2.40;;;;;2.90;103333.00;;;;5110205;28;20223;-67
2022/03/18 02:40:44;;;;;;;11.07;3.30;;;;;2.80;103325.00;;;;5115139;27;20268;-66
2022/03/18 02:43:30;;;;;;;5.77;3.20;;;;;2.70;103330.00;;;;5093088;28;20230;-67
2022/03/18 02:46:17;;;;;;;7.90;3.57;;;;;2.70;103337.00;;;;5084566;28;20289;-68
2022/03/18 02:49:04;;;;;;;3.83;2.77;;;;;2.60;103340.00;;;;5081842;28;20235;-67
2022/03/18 02:51:51;;;;;;;4.97;3.07;;;;;2.60;103342.00;;;;5084928;28;20227;-67
2022/03/18 02:54:38;;;;;;;5.77;2.70;;;;;2.50;103338.00;;;;5072968;28;20235;-67
2022/03/18 02:57:26;;;;;;;4.93;2.50;;;;;2.70;103344.00;;;;5068960;28;20289;-66
2022/03/18 03:00:13;;;;;;;2.77;2.20;;;;;2.40;103346.00;;;;5081774;28;20229;-67
2022/03/18 03:02:59;;;;;;;7.00;2.40;;;;;2.50;103342.00;;;;5085663;28;20223;-67
2022/03/18 03:08:50;;;;;;;5.53;2.40;;;;;2.50;103342.00;;;;5097136;28;20214;-66
2022/03/18 03:11:36;;;;;;;3.07;1.90;;;;;2.50;103346.00;;;;5093885;27;20788;-67
2022/03/18 03:14:24;;;;;;;3.73;2.40;;;;;2.40;103346.00;;;;5089218;27;20301;-67
2022/03/18 03:17:10;;;;;;;3.67;2.90;;;;;2.30;103351.00;;;;5106134;28;20230;-67
2022/03/18 03:19:57;;;;;;;5.00;2.97;;;;;2.30;103353.00;;;;5098977;27;20245;-66
2022/03/18 03:22:43;;;;;;;8.23;3.20;;;;;2.40;103357.00;;;;5075383;28;20231;-66
2022/03/18 03:25:29;;;;;;;9.10;3.07;;;;;2.30;103355.00;;;;5056484;28;20231;-67
2022/03/18 03:28:17;;;;;;;5.27;3.20;;;;;2.30;103355.00;;;;5074880;28;20227;-66
2022/03/18 03:31:05;;;;;;;6.73;3.20;;;;;2.30;103354.00;;;;5079601;28;20255;-67
2022/03/18 03:33:51;;;;;;;7.07;3.07;;;;;2.30;103352.00;;;;5094232;28;21128;-67
2022/03/18 03:36:37;;;;;;;4.30;2.60;;;;;2.30;103367.00;;;;5106476;28;20227;-67
2022/03/18 03:39:24;;;;;;;7.77;2.37;;;;;2.30;103352.00;;;;5084629;28;20219;-66
2022/03/18 03:42:10;;;;;;;5.37;2.80;;;;;2.20;103347.00;;;;5084813;28;20722;-66
2022/03/18 03:44:56;;;;;;;8.43;3.10;;;;;2.20;103341.00;;;;5084357;28;20235;-66
2022/03/18 03:47:44;;;;;;;6.77;3.60;;;;;1.90;103359.00;;;;5096680;28;20246;-67
2022/03/18 03:50:31;;;;;;;4.03;3.23;;;;;1.80;103390.00;;;;5071220;28;20294;-66
2022/03/18 03:53:17;;;;;;;6.57;2.60;;;;;1.90;103383.00;;;;5084256;28;20239;-66
2022/03/18 03:56:04;;;;;;;6.00;2.50;;;;;1.90;103379.00;;;;5082128;28;20231;-66
2022/03/18 03:58:50;;;;;;;4.90;2.50;;;;;1.70;103384.00;;;;5077764;28;20231;-67
2022/03/18 04:01:36;;;;;;;4.23;2.73;;;;;1.90;103366.00;;;;5071347;28;20614;-67
2022/03/18 04:04:24;;;;;;;4.10;2.80;;;;;2.20;103373.00;;;;5081731;28;20227;-67
2022/03/18 04:07:11;;;;;;;3.60;2.87;;;;;2.20;103380.00;;;;5084548;28;20328;-66
2022/03/18 04:09:57;;;;;;;4.47;2.73;;;;;1.90;103377.00;;;;5083885;28;20237;-67
2022/03/18 04:12:44;;;;;;;4.57;2.63;;;;;2.00;103388.00;;;;5081959;28;20744;-68
2022/03/18 04:15:30;;;;;;;4.27;2.80;;;;;1.90;103388.00;;;;5067094;28;20249;-65
2022/03/18 04:18:16;;;;;;;5.53;2.87;;;;;1.80;103391.00;;;;5079972;28;20232;-66
2022/03/18 04:21:04;;;;;;;5.33;3.20;;;;;1.70;103390.00;;;;5084159;28;20231;-64
2022/03/18 04:23:50;;;;;;;7.97;2.97;;;;;1.90;103394.00;;;;5082641;28;20231;-65
2022/03/18 04:26:36;;;;;;;4.63;2.93;;;;;1.70;103396.00;;;;5071038;28;20222;-66
2022/03/18 04:29:23;;;;;;;5.20;2.50;;;;;1.80;103401.00;;;;5081243;28;20227;-65
2022/03/18 04:32:11;;;;;;;4.37;2.70;;;;;1.60;103408.00;;;;5081028;28;20232;-65
2022/03/18 04:34:57;;;;;;;4.10;2.67;;;;;1.60;103413.00;;;;5080359;28;20251;-66
2022/03/18 04:37:45;;;;;;;5.97;3.00;;;;;1.60;103411.00;;;;5090392;28;20348;-64
2022/03/18 04:40:32;;;;;;;3.90;3.10;;;;;1.60;103425.00;;;;5089393;28;20230;-65
2022/03/18 04:43:18;;;;;;;7.80;3.77;;;;;1.50;103434.00;;;;5083472;28;20236;-65
2022/03/18 04:46:05;;;;;;;3.67;3.17;;;;;1.60;103451.00;;;;5083887;28;20231;-65
2022/03/18 04:48:51;;;;;;;5.53;2.80;;;;;1.50;103438.00;;;;5081352;28;20231;-68
2022/03/18 04:51:37;;;;;;;5.77;3.03;;;;;1.70;103435.00;;;;5070613;28;20300;-66
2022/03/18 04:54:25;;;;;;;9.47;2.93;;;;;1.90;103438.00;;;;5080243;28;20610;-64
2022/03/18 04:57:18;;;;;;;6.10;3.70;;;;;1.60;103444.00;;;;5104335;28;20508;-66
2022/03/18 05:00:06;;;;;;;6.43;2.70;;;;;1.50;103449.00;;;;5101429;28;20292;-64
2022/03/18 05:02:52;;;;;;;5.57;3.33;;;;;1.40;103467.00;;;;5086176;28;20317;-66
2022/03/18 05:05:39;;;;;;;8.77;2.97;;;;;1.50;103463.00;;;;5081669;28;20250;-65
2022/03/18 05:08:25;;;;;;;8.97;3.37;;;;;1.80;103460.00;;;;5081687;28;20218;-66
2022/03/18 05:11:13;;;;;;;7.30;3.33;;;;;1.50;103468.00;;;;5081421;28;20227;-67
2022/03/18 05:13:59;;;;;;;7.17;3.00;;;;;1.50;103451.00;;;;5083585;28;20263;-67
2022/03/18 05:16:46;;;;;;;3.80;2.93;;;;;1.80;103482.00;;;;5072680;28;20222;-65
2022/03/18 05:19:33;;;;;;;5.20;2.87;;;;;1.70;103471.00;;;;5079331;28;20219;-68
2022/03/18 05:22:19;;;;;;;8.30;3.00;;;;;1.70;103477.00;;;;5082748;28;20793;-67
2022/03/18 05:25:06;;;;;;;6.77;3.00;;;;;1.70;103486.00;;;;5085215;28;20219;-67
2022/03/18 05:27:53;;;;;;;9.30;3.20;;;;;1.80;103491.00;;;;5082991;28;20372;-67
2022/03/18 05:30:40;;;;;;;8.30;3.03;;;;;1.80;103487.00;;;;5092084;28;20708;-66
2022/03/18 05:33:27;;;;;;;7.43;3.00;;;;;1.70;103497.00;;;;5077001;28;20950;-66
2022/03/18 05:36:14;;;;;;;6.27;2.93;;;;;1.60;103510.00;;;;5104163;28;20361;-67
2022/03/18 05:39:00;;;;;;;3.13;2.47;;;;;1.60;103504.00;;;;5103643;28;20226;-65
2022/03/18 05:41:47;;;;;;;4.30;2.60;;;;;1.50;103508.00;;;;5094859;28;20227;-66
2022/03/18 05:44:34;;;;;;;4.87;3.00;;;;;1.40;103523.00;;;;5101542;28;20230;-69
2022/03/18 05:47:20;;;;;;;6.33;3.23;;;;;1.40;103523.00;;;;5085790;28;20223;-65
2022/03/18 05:50:08;;;;;;;7.83;3.53;;;;;1.40;103531.00;;;;5083156;28;20725;-66
2022/03/18 05:52:55;;;;;;;4.57;2.73;;;;;1.60;103524.00;;;;5083696;28;20970;-66
2022/03/18 05:58:46;;;;;;;3.70;2.60;;;;;1.60;103522.00;;;;5067847;28;20241;-67
2022/03/18 06:01:37;;;;;;;4.07;2.47;;;;;1.70;103527.00;;;;5068423;28;20603;-67
2022/03/18 06:04:25;;;;;;;5.93;2.60;;;;;1.50;103539.00;;;;5088506;28;20284;-66
2022/03/18 06:07:11;;;;;;;7.80;3.37;;;;;1.60;103534.00;;;;5096748;28;20230;-67
2022/03/18 06:13:01;;;;;;;2.27;2.07;;;;;1.70;103550.00;;;;5096938;28;20234;-67
2022/03/18 06:15:48;;;;;;;6.67;3.00;;;;;1.80;103555.00;;;;5095004;27;20234;-68
2022/03/18 06:18:54;;;;;;;4.73;2.87;;;;;1.80;103557.00;;;;5073039;28;20855;-66
2022/03/18 06:21:41;;;;;;;3.77;2.70;;;;;2.00;103548.00;;;;5084383;28;20247;-67
2022/03/18 06:24:29;;;;;;;6.37;3.23;;;;;1.90;103571.00;;;;5105719;27;20353;-67
2022/03/18 06:27:15;;;;;;;9.03;3.07;;;;;1.90;103564.00;;;;5089650;28;20274;-67
2022/03/18 06:30:01;;;;;;;6.47;3.03;;;;;2.00;103570.00;;;;5086591;28;20593;-67
2022/03/18 06:32:47;;;;;;;9.67;3.13;;;;;2.10;103571.00;;;;5067643;28;20258;-69
2022/03/18 06:35:35;;;;;;;8.73;3.33;;;;;2.10;103573.00;;;;5070339;28;20263;-67
2022/03/18 06:38:22;;;;;;;5.77;3.27;;;;;2.40;103584.00;;;;5085920;28;20764;-69
2022/03/18 06:41:08;;;;;;;3.37;2.77;;;;;2.30;103589.00;;;;5086244;28;20227;-67
2022/03/18 06:43:54;;;;;;;6.73;3.50;;;;;2.40;103591.00;;;;5086193;28;20235;-65
2022/03/18 06:46:41;;;;;;;6.53;3.43;;;;;2.30;103587.00;;;;5067330;28;20361;-66
2022/03/18 06:49:27;;;;;;;8.00;3.37;;;;;2.50;103577.00;;;;5084213;28;20923;-68
2022/03/18 06:52:15;;;;;;;7.43;4.00;;;;;2.60;103583.00;;;;5086686;28;20231;-66
2022/03/18 06:55:01;;;;;;;12.53;4.30;;;;;2.60;103583.00;;;;5059694;28;20603;-67
2022/03/18 06:57:47;;;;;;;11.60;5.13;;;;;2.50;103592.00;;;;5078230;28;20808;-66
2022/03/18 07:00:35;;;;;;;8.97;4.90;;;;;2.70;103589.00;;;;5098965;27;20261;-68
2022/03/18 07:03:21;;;;;;;10.20;4.90;;;;;2.90;103586.00;;;;5087927;28;20726;-67
2022/03/18 07:06:10;;;;;;;9.23;5.37;;;;;3.00;103584.00;;;;5083229;28;20361;-66
2022/03/18 07:08:58;;;;;;;7.73;5.07;;;;;2.90;103592.00;;;;5106070;27;20221;-66
2022/03/18 07:11:44;;;;;;;5.83;4.23;;;;;2.90;103579.00;;;;5075601;28;20224;-69
2022/03/18 07:14:30;;;;;;;7.43;4.77;;;;;3.10;103573.00;;;;5066280;28;20218;-66
2022/03/18 07:20:22;;;;;;;6.70;4.63;;;;;3.20;103587.00;;;;5129040;27;20214;-71
2022/03/18 07:23:10;;;;;;;6.83;4.73;;;;;3.20;103597.00;;;;5128470;28;20710;-71
2022/03/18 07:25:57;;;;;;;10.03;5.70;;;;;3.30;103600.00;;;;5118204;28;20231;-70
2022/03/18 07:28:44;;;;;;;12.77;5.57;;;;;3.30;103608.00;;;;5115947;28;20216;-66
2022/03/18 07:31:30;;;;;;;23.57;8.20;;;;;3.40;103605.00;;;;5116151;28;20228;-70
2022/03/18 07:34:17;;;;;;;10.30;5.90;;;;;3.50;103609.00;;;;5113855;28;20246;-69
2022/03/18 07:37:03;;;;;;;10.20;5.37;;;;;3.70;103599.00;;;;5116012;28;20214;-71
2022/03/18 07:39:49;;;;;;;14.13;5.57;;;;;3.80;103596.00;;;;5116286;28;20214;-68
2022/03/18 07:42:44;;;;;;;9.67;5.33;;;;;4.00;103604.00;;;;5100606;28;20225;-69
2022/03/18 07:45:32;;;;;;;8.63;5.67;;;;;4.20;103588.00;;;;5075576;28;20310;-70
2022/03/18 07:48:20;;;;;;;11.60;6.70;;;;;4.40;103603.00;;;;5080343;28;20255;-69
2022/03/18 07:51:07;;;;;;;12.50;6.40;;;;;4.60;103610.00;;;;5085061;28;20219;-69
2022/03/18 07:53:55;;;;;;;13.17;5.93;;;;;4.80;103608.00;;;;5091468;27;20233;-68
2022/03/18 07:56:41;;;;;;;13.50;6.27;;;;;5.00;103609.00;;;;5090546;28;20607;-69
2022/03/18 07:59:29;;;;;;;12.80;5.80;;;;;5.10;103624.00;;;;5086376;28;20760;-70
2022/03/18 08:02:15;;;;;;;13.77;6.13;;;;;5.10;103618.00;;;;5101239;28;20230;-70
2022/03/18 08:05:02;;;;;;;8.93;5.27;;;;;5.20;103628.00;;;;5100889;27;20230;-70
2022/03/18 08:07:48;;;;;;;10.13;5.90;;;;;5.30;103625.00;;;;5074144;28;20791;-70
2022/03/18 08:10:34;;;;;;;12.40;5.73;;;;;5.50;103636.00;;;;5069500;28;20693;-70
2022/03/18 08:13:21;;;;;;;10.17;6.17;;;;;5.80;103633.00;;;;5084253;28;20660;-70
2022/03/18 08:16:08;;;;;;;10.83;5.47;;;;;5.90;103639.00;;;;5082102;28;20227;-68
2022/03/18 08:18:57;;;;;;;7.30;5.10;;;;;6.00;103653.00;;;;5066890;28;20227;-69
2022/03/18 08:21:43;;;;;;;8.40;5.47;;;;;6.10;103658.00;;;;5069876;28;20223;-67
2022/03/18 08:24:35;;;;;;;15.73;5.87;;;;;6.20;103655.00;;;;5106492;28;21018;-68
2022/03/18 08:27:21;;;;;;;11.23;5.47;;;;;6.50;103659.00;;;;5110404;28;20222;-68
2022/03/18 08:30:11;;;;;;;13.27;5.30;;;;;6.70;103664.00;;;;5104086;28;20226;-69
2022/03/18 08:32:58;;;;;;;10.37;4.83;;;;;6.70;103679.00;;;;5093059;28;20364;-68
2022/03/18 08:35:44;;;;;;;8.40;4.53;;;;;6.80;103675.00;;;;5101995;28;20234;-69
2022/03/18 08:38:31;;;;;;;11.77;4.83;;;;;6.80;103683.00;;;;5104420;28;20235;-69
2022/03/18 08:41:17;;;;;;;7.80;4.43;;;;;6.90;103678.00;;;;5101611;28;20235;-69
2022/03/18 08:44:04;;;;;;;12.93;4.87;;;;;7.10;103681.00;;;;5104723;28;20296;-67
2022/03/18 08:46:50;;;;;;;11.43;4.40;;;;;7.20;103687.00;;;;5091147;28;20358;-70
2022/03/18 08:49:38;;;;;;;8.87;3.90;;;;;7.40;103688.00;;;;5101385;28;20226;-68
2022/03/18 08:52:24;;;;;;;6.40;3.77;;;;;7.50;103690.00;;;;5085693;28;20361;-68
2022/03/18 08:55:11;;;;;;;11.60;4.17;;;;;7.80;103699.00;;;;5084285;28;20223;-68
2022/03/18 08:57:57;;;;;;;12.23;4.03;;;;;8.00;103712.00;;;;5072404;28;20239;-68
2022/03/18 09:00:44;;;;;;;5.37;3.33;;;;;8.10;103703.00;;;;5068894;28;20765;-68
2022/03/18 09:03:30;;;;;;;10.03;3.27;;;;;8.40;103701.00;;;;5083555;28;20235;-68
2022/03/18 09:06:18;;;;;;;5.73;2.90;;;;;8.60;103700.00;;;;5076673;28;20231;-69
2022/03/18 09:09:05;;;;;;;11.33;3.50;;;;;8.70;103706.00;;;;5083435;28;20220;-69
2022/03/18 09:11:51;;;;;;;7.17;2.87;;;;;8.90;103712.00;;;;5069782;28;20694;-68
2022/03/18 09:14:37;;;;;;;7.80;3.37;;;;;9.10;103710.00;;;;5083291;28;20231;-69
2022/03/18 09:17:24;;;;;;;6.80;3.53;;;;;9.10;103722.00;;;;5078689;28;20236;-68
2022/03/18 09:20:11;;;;;;;8.43;3.37;;;;;9.30;103728.00;;;;5073573;28;20275;-68
2022/03/18 09:22:59;;;;;;;6.30;3.40;;;;;9.50;103727.00;;;;5068333;28;20757;-69
2022/03/18 09:25:45;;;;;;;9.00;3.43;;;;;9.50;103739.00;;;;5068483;28;20258;-70
2022/03/18 09:28:31;;;;;;;8.53;3.30;;;;;9.70;103735.00;;;;5064147;28;20822;-69
2022/03/18 09:31:17;;;;;;;7.67;3.10;;;;;9.90;103732.00;;;;5045224;28;20244;-69
2022/03/18 09:34:04;;;;;;;9.20;3.50;;;;;9.80;103725.00;;;;5073291;28;20311;-68
2022/03/18 09:36:50;;;;;;;10.80;3.10;;;;;9.90;103741.00;;;;5069454;28;20237;-68
2022/03/18 09:39:38;;;;;;;10.77;3.43;;;;;10.30;103752.00;;;;5083315;28;20228;-66
2022/03/18 09:42:28;;;;;;;4.53;2.70;;;;;10.30;103737.00;;;;5086618;28;20246;-67
2022/03/18 09:45:14;;;;;;;6.23;2.90;;;;;10.40;103755.00;;;;5107856;28;20758;-68
2022/03/18 09:48:02;;;;;;;6.80;2.97;;;;;10.60;103752.00;;;;5095979;27;20319;-68
2022/03/18 09:50:49;;;;;;;6.03;2.60;;;;;10.80;103758.00;;;;5075108;28;20223;-68
2022/03/18 09:53:36;;;;;;;6.47;2.57;;;;;10.80;103757.00;;;;5087080;28;20227;-68
2022/03/18 09:56:23;;;;;;;6.33;2.63;;;;;11.10;103761.00;;;;5086745;28;20270;-67
2022/03/18 09:59:10;;;;;;;4.93;2.43;;;;;11.20;103764.00;;;;5087421;28;20255;-69
2022/03/18 10:02:25;;;;;;;5.97;2.20;;;;;11.40;103766.00;;;;5107753;28;20292;-67
2022/03/18 10:05:13;;;;;;;6.67;2.40;;;;;11.30;103757.00;;;;5070730;28;20868;-66
2022/03/18 10:08:00;;;;;;;4.90;2.40;;;;;11.50;103766.00;;;;5101449;27;20224;-67
2022/03/18 10:10:47;;;;;;;4.67;2.43;;;;;11.60;103764.00;;;;5091817;27;20269;-70
2022/03/18 10:13:50;;;;;;;3.53;2.43;;;;;11.70;103756.00;;;;5109165;28;20230;-67
2022/03/18 10:16:38;;;;;;;4.90;2.20;;;;;11.80;103757.00;;;;5108408;27;20241;-67
2022/03/18 10:19:25;;;;;;;2.57;2.13;;;;;12.00;103753.00;;;;5083424;28;20667;-67
2022/03/18 10:22:12;;;;;;;8.20;2.47;;;;;12.10;103765.00;;;;5075958;28;21031;-67
2022/03/18 10:24:58;;;;;;;6.27;2.50;;;;;12.30;103756.00;;;;5068477;28;20373;-67
2022/03/18 10:27:49;;;;;;;7.03;2.47;;;;;12.40;103757.00;;;;5087301;28;20231;-69
2022/03/18 10:30:37;;;;;;;8.90;2.67;;;;;12.50;103761.00;;;;5086444;28;20298;-68
2022/03/18 10:37:05;;;;;;;7.83;2.27;;;;;12.40;103771.00;;;;5071270;28;20223;-68
2022/03/18 10:39:59;;;;;;;4.70;2.30;;;;;12.50;103744.00;;;;5071979;28;20673;-68
2022/03/18 10:42:57;;;;;;;5.53;2.37;;;;;12.30;103778.00;;;;5069539;28;20231;-68
2022/03/18 10:45:59;;;;;;;6.77;2.57;;;;;12.50;103776.00;;;;5085457;28;20255;-70
2022/03/18 10:49:02;;;;;;;4.23;2.17;;;;;12.60;103783.00;;;;5090049;28;20231;-68
2022/03/18 10:51:48;;;;;;;3.73;2.20;;;;;12.60;103778.00;;;;5086530;28;20219;-66
2022/03/18 10:54:35;;;;;;;4.07;2.30;;;;;12.70;103777.00;;;;5086044;28;21233;-68
2022/03/18 10:57:22;;;;;;;7.20;2.23;;;;;12.80;103782.00;;;;5085717;28;20231;-68
2022/03/18 11:00:10;;;;;;;4.47;2.40;;;;;12.80;103791.00;;;;5085735;28;20227;-66
2022/03/18 11:02:59;;;;;;;3.83;2.40;;;;;12.80;103793.00;;;;5072387;28;20227;-67
2022/03/18 11:05:47;;;;;;;8.40;2.57;;;;;12.90;103779.00;;;;5083300;28;20223;-67
2022/03/18 11:08:42;;;;;;;6.73;2.90;;;;;13.10;103772.00;;;;5085773;28;20690;-67
2022/03/18 11:11:28;;;;;;;3.17;2.40;;;;;13.10;103784.00;;;;5067612;28;20355;-67
2022/03/18 11:14:20;;;;;;;5.87;2.50;;;;;13.10;103796.00;;;;5105830;28;20716;-70
2022/03/18 11:17:06;;;;;;;6.20;2.60;;;;;13.20;103788.00;;;;5094836;28;20225;-67
2022/03/18 11:19:54;;;;;;;3.53;2.07;;;;;13.30;103789.00;;;;5097511;28;20218;-67
2022/03/18 11:22:41;;;;;;;6.43;2.57;;;;;13.40;103782.00;;;;5082161;28;20699;-67
2022/03/18 11:25:29;;;;;;;5.50;2.47;;;;;13.50;103788.00;;;;5085302;28;20246;-67
2022/03/18 11:28:17;;;;;;;5.63;2.40;;;;;13.70;103789.00;;;;5085683;28;20243;-67
2022/03/18 11:31:06;;;;;;;7.73;2.67;;;;;13.70;103779.00;;;;5073358;28;20922;-69
2022/03/18 11:34:09;;;;;;;7.70;2.77;;;;;13.70;103783.00;;;;5072696;28;20219;-68
2022/03/18 11:37:09;;;;;;;3.70;2.53;;;;;13.50;103784.00;;;;5071100;28;20215;-67
2022/03/18 11:40:30;;;;;;;6.10;2.90;;;;;13.50;103785.00;;;;5090981;28;20248;-68
2022/03/18 11:43:32;;;;;;;2.93;2.37;;;;;13.60;103780.00;;;;5077461;28;20370;-69
2022/03/18 11:46:22;;;;;;;5.03;2.50;;;;;13.60;103771.00;;;;5069124;28;20298;-68
2022/03/18 11:49:09;;;;;;;5.40;2.50;;;;;13.70;103776.00;;;;5056936;28;20292;-69
2022/03/18 11:51:59;;;;;;;8.20;2.50;;;;;13.60;103773.00;;;;5056900;28;20259;-67
2022/03/18 11:54:51;;;;;;;8.00;3.00;;;;;13.80;103777.00;;;;5058628;28;20413;-69
2022/03/18 11:57:47;;;;;;;3.80;2.23;;;;;13.80;103772.00;;;;5059017;28;20227;-71
2022/03/18 12:00:46;;;;;;;5.60;2.40;;;;;13.90;103772.00;;;;5056239;28;20244;-70
2022/03/18 12:03:37;;;;;;;6.87;2.63;;;;;14.00;103762.00;;;;5059387;28;20298;-68
2022/03/18 12:06:24;;;;;;;6.07;2.37;;;;;14.10;103761.00;;;;5053598;28;20681;-68
2022/03/18 12:09:28;;;;;;;5.30;2.33;;;;;14.10;103749.00;;;;5052168;28;20236;-67
2022/03/18 12:12:17;;;;;;;7.53;2.70;;;;;14.40;103757.00;;;;5085446;28;20771;-68
2022/03/18 12:15:06;;;;;;;4.73;2.43;;;;;14.50;103754.00;;;;5072232;28;20241;-67
2022/03/18 12:17:55;;;;;;;4.53;2.20;;;;;14.50;103768.00;;;;5065814;28;20351;-68
2022/03/18 12:20:43;;;;;;;3.97;2.33;;;;;14.60;103748.00;;;;5080473;28;20286;-70
2022/03/18 12:23:34;;;;;;;4.10;2.43;;;;;14.70;103752.00;;;;5079174;28;20239;-68
2022/03/18 12:26:20;;;;;;;3.53;2.30;;;;;14.70;103750.00;;;;5084318;28;20237;-67
2022/03/18 12:29:18;;;;;;;4.80;2.40;;;;;14.80;103742.00;;;;5069553;28;20662;-68
2022/03/18 12:32:06;;;;;;;4.77;2.50;;;;;14.80;103741.00;;;;5070790;28;20608;-67
2022/03/18 12:34:54;;;;;;;4.83;2.37;;;;;14.90;103749.00;;;;5068361;28;20224;-68
2022/03/18 12:37:41;;;;;;;4.30;2.47;;;;;15.20;103745.00;;;;5081629;28;20239;-67
2022/03/18 12:40:27;;;;;;;4.60;2.47;;;;;15.00;103748.00;;;;5084132;28;20241;-68
2022/03/18 12:43:16;;;;;;;4.53;2.23;;;;;15.10;103744.00;;;;5082770;28;20332;-69
2022/03/18 12:46:05;;;;;;;5.33;2.50;;;;;15.20;103741.00;;;;5089484;28;20224;-69
2022/03/18 12:48:51;;;;;;;4.20;2.43;;;;;15.20;103748.00;;;;5078393;28;20265;-67
2022/03/18 12:51:38;;;;;;;3.83;2.60;;;;;15.20;103746.00;;;;5081410;28;20231;-67
2022/03/18 12:54:25;;;;;;;3.93;2.10;;;;;15.40;103751.00;;;;5084271;28;20240;-67
2022/03/18 12:57:11;;;;;;;5.03;2.27;;;;;15.50;103757.00;;;;5078461;28;20770;-67
2022/03/18 12:59:58;;;;;;;4.43;2.57;;;;;15.50;103758.00;;;;5064808;28;20232;-68
2022/03/18 13:03:06;;;;;;;8.33;2.87;;;;;15.60;103755.00;;;;5078162;28;20226;-68
2022/03/18 13:05:55;;;;;;;4.90;2.30;;;;;15.40;103751.00;;;;5068265;28;20226;-69
2022/03/18 13:08:42;;;;;;;6.00;2.30;;;;;15.40;103758.00;;;;5083952;28;20228;-68
2022/03/18 13:11:32;;;;;;;6.50;2.73;;;;;15.40;103768.00;;;;5083628;28;20368;-68
2022/03/18 13:14:35;;;;;;;7.40;2.47;;;;;15.50;103754.00;;;;5081447;28;20241;-70
2022/03/18 13:17:23;;;;;;;5.77;2.93;;;;;15.60;103759.00;;;;5078906;28;20604;-68
2022/03/18 13:20:24;;;;;;;6.17;2.57;;;;;15.90;103753.00;;;;5081644;28;21015;-67
2022/03/18 13:23:11;;;;;;;5.67;2.60;;;;;15.80;103751.00;;;;5070684;28;20839;-71
2022/03/18 13:25:58;;;;;;;5.33;2.80;;;;;15.80;103750.00;;;;5085616;28;20244;-66
2022/03/18 13:28:45;;;;;;;7.63;2.77;;;;;15.80;103742.00;;;;5088123;28;20223;-67
2022/03/18 13:34:36;;;;;;;5.80;2.73;;;;;15.70;103749.00;;;;5082992;28;20237;-67
2022/03/18 13:37:24;;;;;;;5.00;2.57;;;;;15.70;103735.00;;;;5087654;28;20219;-68
2022/03/18 13:40:12;;;;;;;5.23;2.90;;;;;15.70;103734.00;;;;5075803;28;20238;-68
2022/03/18 13:43:04;;;;;;;4.03;2.50;;;;;16.00;103740.00;;;;5074605;28;20696;-68
2022/03/18 13:46:09;;;;;;;5.77;2.80;;;;;16.10;103731.00;;;;5068795;28;20220;-67
2022/03/18 13:49:10;;;;;;;5.33;2.40;;;;;16.00;103741.00;;;;5071027;28;20220;-67
2022/03/18 13:52:00;;;;;;;4.90;2.40;;;;;16.10;103728.00;;;;5071466;28;20220;-65
2022/03/18 13:54:53;;;;;;;4.90;2.80;;;;;16.30;103729.00;;;;5064838;28;20216;-68
2022/03/18 13:57:46;;;;;;;4.43;2.70;;;;;16.50;103735.00;;;;5055617;28;20854;-69
2022/03/18 14:00:35;;;;;;;5.90;3.10;;;;;16.50;103734.00;;;;5076100;28;20235;-68
2022/03/18 14:03:30;;;;;;;8.33;3.10;;;;;16.50;103737.00;;;;5072347;28;20248;-69
2022/03/18 14:06:16;;;;;;;5.77;2.73;;;;;16.70;103734.00;;;;5084901;28;20223;-66
2022/03/18 14:09:13;;;;;;;6.17;3.10;;;;;16.70;103699.00;;;;5092657;28;20223;-67
2022/03/18 14:12:10;;;;;;;5.37;2.67;;;;;16.50;103731.00;;;;5091758;28;20865;-67
2022/03/18 14:15:11;;;;;;;6.70;2.57;;;;;16.40;103724.00;;;;5088829;28;20231;-68
2022/03/18 14:18:01;;;;;;;8.40;3.40;;;;;16.40;103749.00;;;;5073146;28;20264;-67
2022/03/18 14:20:59;;;;;;;5.17;3.03;;;;;16.50;103740.00;;;;5086556;28;20231;-66